Time;durP1;ratioP1;P1;durP2;ratioP2;P2;SDS_P1;SDS_P2;PMS_P1;PMS_P2;Temp;Humidity;BMP_temperature;BMP_pressure;BME280_temperature;BME280_humidity;BME280_pressure;Samples;Min_cycle;Max_cycle;Signal;HPM_P1;HPM_P2
2022/10/12 00:00:14;;;;;;;;;;;;;;;;;;5137964;27;19922;-77
2022/10/12 00:02:40;;;;;;;;;;;;;;;;;;5138198;27;19922;-77
2022/10/12 00:05:05;;;;;;;;;;;;;;;;;;5138159;27;19915;-77
2022/10/12 00:07:30;;;;;;;;;;;;;;;;;;5138334;27;19922;-77
2022/10/12 00:09:56;;;;;;;;;;;;;;;;;;5137894;27;20558;-77
2022/10/12 00:12:21;;;;;;;;;;;;;;;;;;5137715;27;20234;-77
2022/10/12 00:14:46;;;;;;;;;;;;;;;;;;5137988;27;20253;-78
2022/10/12 00:17:12;;;;;;;;;;;;;;;;;;5137702;27;19954;-78
2022/10/12 00:19:37;;;;;;;;;;;;;;;;;;5137614;27;20257;-78
2022/10/12 00:22:03;;;;;;;;;;;;;;;;;;5137502;27;20359;-77
2022/10/12 00:24:28;;;;;;;;;;;;;;;;;;5137595;27;19916;-77
2022/10/12 00:26:53;;;;;;;;;;;;;;;;;;5137393;27;19918;-76
2022/10/12 00:29:19;;;;;;;;;;;;;;;;;;5136385;27;19916;-77
2022/10/12 00:31:44;;;;;;;;;;;;;;;;;;5136117;27;20399;-78
2022/10/12 00:34:09;;;;;;;;;;;;;;;;;;5137321;27;20363;-77
2022/10/12 00:36:35;;;;;;;;;;;;;;;;;;5137841;27;19988;-77
2022/10/12 00:39:01;;;;;;;;;;;;;;;;;;5137065;27;19912;-77
2022/10/12 00:41:27;;;;;;;;;;;;;;;;;;5137136;27;19922;-78
2022/10/12 00:43:52;;;;;;;;;;;;;;;;;;5137200;27;20354;-77
2022/10/12 00:46:19;;;;;;;;;;;;;;;;;;5137347;27;20006;-76
2022/10/12 00:48:45;;;;;;;;;;;;;;;;;;5136746;27;19916;-77
2022/10/12 00:51:11;;;;;;;;;;;;;;;;;;5137518;27;20300;-77
2022/10/12 00:53:41;;;;;;;;;;;;;;;;;;5135625;27;19999;-77
2022/10/12 00:56:07;;;;;;;;;;;;;;;;;;5135773;27;20026;-77
2022/10/12 00:58:32;;;;;;;;;;;;;;;;;;5134775;27;20391;-77
2022/10/12 01:01:01;;;;;;;;;;;;;;;;;;5135544;27;19915;-78
2022/10/12 01:03:27;;;;;;;;;;;;;;;;;;5135887;27;19947;-77
2022/10/12 01:05:52;;;;;;;;;;;;;;;;;;5136692;27;19958;-78
2022/10/12 01:08:17;;;;;;;;;;;;;;;;;;5136573;27;19922;-78
2022/10/12 01:10:43;;;;;;;;;;;;;;;;;;5136999;27;19944;-77
2022/10/12 01:13:08;;;;;;;;;;;;;;;;;;5136677;27;19963;-76
2022/10/12 01:15:35;;;;;;;;;;;;;;;;;;5136878;27;19915;-77
2022/10/12 01:18:15;;;;;;;;;;;;;;;;;;5135643;27;20342;-77
2022/10/12 01:20:49;;;;;;;;;;;;;;;;;;5142788;27;19947;-77
2022/10/12 01:23:18;;;;;;;;;;;;;;;;;;5154444;27;19916;-76
2022/10/12 01:25:58;;;;;;;;;;;;;;;;;;5155587;27;19916;-77
2022/10/12 01:28:41;;;;;;;;;;;;;;;;;;5156798;27;19941;-77
2022/10/12 01:31:14;;;;;;;;;;;;;;;;;;5155819;27;20049;-79
2022/10/12 01:33:41;;;;;;;;;;;;;;;;;;5130120;27;19915;-77
2022/10/12 01:36:16;;;;;;;;;;;;;;;;;;5134794;27;19955;-78
2022/10/12 01:39:07;;;;;;;;;;;;;;;;;;5136014;27;19920;-77
2022/10/12 01:41:32;;;;;;;;;;;;;;;;;;5133785;27;19915;-77
2022/10/12 01:43:58;;;;;;;;;;;;;;;;;;5136310;27;19923;-77
2022/10/12 01:46:23;;;;;;;;;;;;;;;;;;5136005;27;19911;-77
2022/10/12 01:48:49;;;;;;;;;;;;;;;;;;5136188;27;20268;-76
2022/10/12 01:51:15;;;;;;;;;;;;;;;;;;5117422;27;19915;-76
2022/10/12 01:53:41;;;;;;;;;;;;;;;;;;5134621;27;19911;-76
2022/10/12 01:56:07;;;;;;;;;;;;;;;;;;5134845;27;19947;-77
2022/10/12 01:58:32;;;;;;;;;;;;;;;;;;5135575;27;19919;-76
2022/10/12 02:01:13;;;;;;;;;;;;;;;;;;5135523;27;19971;-76
2022/10/12 02:03:38;;;;;;;;;;;;;;;;;;5135627;27;19915;-75
2022/10/12 02:06:07;;;;;;;;;;;;;;;;;;5135761;27;20006;-76
2022/10/12 02:08:37;;;;;;;;;;;;;;;;;;5134622;27;19954;-76
2022/10/12 02:11:06;;;;;;;;;;;;;;;;;;5135719;27;20320;-76
2022/10/12 02:13:32;;;;;;;;;;;;;;;;;;5135545;27;19916;-76
2022/10/12 02:15:57;;;;;;;;;;;;;;;;;;5134523;27;19926;-76
2022/10/12 02:18:23;;;;;;;;;;;;;;;;;;5135927;27;19920;-77
2022/10/12 02:20:49;;;;;;;;;;;;;;;;;;5133826;27;19915;-76
2022/10/12 02:23:15;;;;;;;;;;;;;;;;;;5135834;27;20052;-76
2022/10/12 02:25:40;;;;;;;;;;;;;;;;;;5134183;27;19973;-77
2022/10/12 02:28:09;;;;;;;;;;;;;;;;;;5134106;27;20343;-76
2022/10/12 02:30:36;;;;;;;;;;;;;;;;;;5134063;27;19916;-77
2022/10/12 02:33:03;;;;;;;;;;;;;;;;;;5134276;27;20060;-76
2022/10/12 02:35:48;;;;;;;;;;;;;;;;;;5134015;28;19921;-76
2022/10/12 02:38:29;;;;;;;;;;;;;;;;;;5134938;27;19922;-76
2022/10/12 02:40:55;;;;;;;;;;;;;;;;;;5135103;27;19922;-76
2022/10/12 02:43:28;;;;;;;;;;;;;;;;;;5134011;28;19919;-77
2022/10/12 02:45:53;;;;;;;;;;;;;;;;;;5133900;28;19984;-76
2022/10/12 02:48:19;;;;;;;;;;;;;;;;;;5133638;28;19916;-77
2022/10/12 02:50:45;;;;;;;;;;;;;;;;;;5135394;27;19923;-76
2022/10/12 02:53:11;;;;;;;;;;;;;;;;;;5134090;28;19954;-77
2022/10/12 02:55:37;;;;;;;;;;;;;;;;;;5135612;27;19915;-78
2022/10/12 02:58:03;;;;;;;;;;;;;;;;;;5133589;28;19919;-77
2022/10/12 03:00:28;;;;;;;;;;;;;;;;;;5135308;27;19916;-78
2022/10/12 03:02:53;;;;;;;;;;;;;;;;;;5133595;28;19916;-78
2022/10/12 03:05:18;;;;;;;;;;;;;;;;;;5135283;27;19919;-78
2022/10/12 03:07:44;;;;;;;;;;;;;;;;;;5135194;27;20001;-78
2022/10/12 03:10:10;;;;;;;;;;;;;;;;;;5134918;27;19916;-78
2022/10/12 03:12:35;;;;;;;;;;;;;;;;;;5133633;28;19970;-77
2022/10/12 03:15:00;;;;;;;;;;;;;;;;;;5134814;27;19915;-78
2022/10/12 03:17:26;;;;;;;;;;;;;;;;;;5134575;27;19924;-78
2022/10/12 03:19:51;;;;;;;;;;;;;;;;;;5135032;27;19915;-78
2022/10/12 03:22:16;;;;;;;;;;;;;;;;;;5136825;27;19922;-78
2022/10/12 03:24:42;;;;;;;;;;;;;;;;;;5138764;27;19916;-78
2022/10/12 03:27:07;;;;;;;;;;;;;;;;;;5137459;27;19915;-78
2022/10/12 03:29:32;;;;;;;;;;;;;;;;;;5138965;27;20005;-77
2022/10/12 03:31:57;;;;;;;;;;;;;;;;;;5138546;27;19949;-78
2022/10/12 03:34:23;;;;;;;;;;;;;;;;;;5137575;27;20244;-78
2022/10/12 03:36:48;;;;;;;;;;;;;;;;;;5138760;27;20346;-77
2022/10/12 03:39:13;;;;;;;;;;;;;;;;;;5120390;27;19998;-77
2022/10/12 03:41:39;;;;;;;;;;;;;;;;;;5138320;27;19954;-78
2022/10/12 03:44:04;;;;;;;;;;;;;;;;;;5138354;27;19916;-77
2022/10/12 03:46:29;;;;;;;;;;;;;;;;;;5138013;27;19919;-77
2022/10/12 03:48:55;;;;;;;;;;;;;;;;;;5136969;27;19915;-78
2022/10/12 03:51:20;;;;;;;;;;;;;;;;;;5138189;27;20948;-77
2022/10/12 03:53:45;;;;;;;;;;;;;;;;;;5138105;27;20316;-77
2022/10/12 03:56:11;;;;;;;;;;;;;;;;;;5138651;27;20052;-78
2022/10/12 03:58:36;;;;;;;;;;;;;;;;;;5137934;27;20037;-78
2022/10/12 04:01:02;;;;;;;;;;;;;;;;;;5137663;27;19959;-78
2022/10/12 04:03:27;;;;;;;;;;;;;;;;;;5138182;27;20324;-78
2022/10/12 04:05:53;;;;;;;;;;;;;;;;;;5138024;27;19915;-78
2022/10/12 04:08:19;;;;;;;;;;;;;;;;;;5126583;27;19973;-77
2022/10/12 04:10:45;;;;;;;;;;;;;;;;;;5137291;27;19923;-77
2022/10/12 04:13:10;;;;;;;;;;;;;;;;;;5135943;27;19920;-76
2022/10/12 04:15:37;;;;;;;;;;;;;;;;;;5136848;27;19919;-77
2022/10/12 04:18:02;;;;;;;;;;;;;;;;;;5136767;27;19965;-77
2022/10/12 04:20:28;;;;;;;;;;;;;;;;;;5135822;27;19924;-77
2022/10/12 04:22:53;;;;;;;;;;;;;;;;;;5136767;27;19951;-77
2022/10/12 04:25:19;;;;;;;;;;;;;;;;;;5135691;27;19923;-76
2022/10/12 04:27:44;;;;;;;;;;;;;;;;;;5136036;27;19916;-77
2022/10/12 04:30:10;;;;;;;;;;;;;;;;;;5136510;27;19998;-77
2022/10/12 04:32:35;;;;;;;;;;;;;;;;;;5136434;27;19972;-76
2022/10/12 04:35:00;;;;;;;;;;;;;;;;;;5128988;27;19915;-77
2022/10/12 04:37:26;;;;;;;;;;;;;;;;;;5135312;27;20007;-77
2022/10/12 04:39:52;;;;;;;;;;;;;;;;;;5134978;27;19964;-78
2022/10/12 04:42:17;;;;;;;;;;;;;;;;;;5135058;27;19922;-75
2022/10/12 04:44:42;;;;;;;;;;;;;;;;;;5134254;27;19916;-76
2022/10/12 04:47:08;;;;;;;;;;;;;;;;;;5142632;27;19911;-76
2022/10/12 04:49:33;;;;;;;;;;;;;;;;;;5155178;27;19924;-77
2022/10/12 04:51:59;;;;;;;;;;;;;;;;;;5141483;27;19923;-76
2022/10/12 04:54:24;;;;;;;;;;;;;;;;;;5135359;27;19976;-75
2022/10/12 04:56:50;;;;;;;;;;;;;;;;;;5139336;27;19945;-77
2022/10/12 04:59:15;;;;;;;;;;;;;;;;;;5132927;27;19926;-75
2022/10/12 05:01:41;;;;;;;;;;;;;;;;;;5128302;27;19927;-76
2022/10/12 05:04:06;;;;;;;;;;;;;;;;;;5137076;27;19919;-76
2022/10/12 05:06:31;;;;;;;;;;;;;;;;;;5127732;27;19920;-76
2022/10/12 05:08:57;;;;;;;;;;;;;;;;;;5128778;27;21247;-77
2022/10/12 05:11:22;;;;;;;;;;;;;;;;;;5128530;27;19980;-77
2022/10/12 05:13:47;;;;;;;;;;;;;;;;;;5132951;27;20042;-77
2022/10/12 05:16:13;;;;;;;;;;;;;;;;;;5130753;27;20484;-77
2022/10/12 05:18:38;;;;;;;;;;;;;;;;;;5121006;27;20605;-78
2022/10/12 05:21:03;;;;;;;;;;;;;;;;;;5141204;27;20352;-76
2022/10/12 05:23:29;;;;;;;;;;;;;;;;;;5148953;27;19963;-75
2022/10/12 05:25:55;;;;;;;;;;;;;;;;;;5147289;27;19915;-76
2022/10/12 05:28:20;;;;;;;;;;;;;;;;;;5127947;27;19995;-75
2022/10/12 05:30:49;;;;;;;;;;;;;;;;;;5131156;27;19975;-75
2022/10/12 05:33:15;;;;;;;;;;;;;;;;;;5131787;27;19934;-76
2022/10/12 05:35:40;;;;;;;;;;;;;;;;;;5113856;27;19919;-77
2022/10/12 05:38:05;;;;;;;;;;;;;;;;;;5133349;27;20325;-76
2022/10/12 05:40:30;;;;;;;;;;;;;;;;;;5129474;27;19924;-76
2022/10/12 05:42:56;;;;;;;;;;;;;;;;;;5131837;27;19920;-78
2022/10/12 05:45:21;;;;;;;;;;;;;;;;;;5138454;27;19920;-76
2022/10/12 05:47:52;;;;;;;;;;;;;;;;;;5133304;27;19923;-76
2022/10/12 05:50:18;;;;;;;;;;;;;;;;;;5129853;27;20029;-77
2022/10/12 05:52:45;;;;;;;;;;;;;;;;;;5133758;27;20093;-76
2022/10/12 05:55:12;;;;;;;;;;;;;;;;;;5129528;27;20763;-74
2022/10/12 05:57:37;;;;;;;;;;;;;;;;;;5136909;27;20104;-76
2022/10/12 06:00:03;;;;;;;;;;;;;;;;;;5139437;27;19960;-74
2022/10/12 06:02:29;;;;;;;;;;;;;;;;;;5127863;27;20264;-77
2022/10/12 06:04:54;;;;;;;;;;;;;;;;;;5130649;27;19926;-77
2022/10/12 06:07:19;;;;;;;;;;;;;;;;;;5129274;27;19925;-76
2022/10/12 06:09:46;;;;;;;;;;;;;;;;;;5132945;27;19946;-75
2022/10/12 06:12:11;;;;;;;;;;;;;;;;;;5125886;27;19934;-74
2022/10/12 06:14:37;;;;;;;;;;;;;;;;;;5132298;27;20010;-74
2022/10/12 06:17:02;;;;;;;;;;;;;;;;;;5146865;27;20364;-74
2022/10/12 06:19:27;;;;;;;;;;;;;;;;;;5119277;27;19920;-75
2022/10/12 06:21:56;;;;;;;;;;;;;;;;;;5132327;27;20034;-77
2022/10/12 06:24:41;;;;;;;;;;;;;;;;;;5132478;27;19927;-75
2022/10/12 06:27:07;;;;;;;;;;;;;;;;;;5150006;27;19941;-75
2022/10/12 06:29:32;;;;;;;;;;;;;;;;;;5136753;27;19941;-75
2022/10/12 06:31:57;;;;;;;;;;;;;;;;;;5136528;27;19920;-76
2022/10/12 06:34:23;;;;;;;;;;;;;;;;;;5134606;27;20347;-77
2022/10/12 06:36:48;;;;;;;;;;;;;;;;;;5136658;27;19937;-77
2022/10/12 06:39:14;;;;;;;;;;;;;;;;;;5135513;27;20002;-75
2022/10/12 06:41:39;;;;;;;;;;;;;;;;;;5134856;27;19926;-77
2022/10/12 06:44:05;;;;;;;;;;;;;;;;;;5138884;27;19919;-78
2022/10/12 06:46:30;;;;;;;;;;;;;;;;;;5130069;27;19915;-74
2022/10/12 06:48:59;;;;;;;;;;;;;;;;;;5137942;28;20241;-75
2022/10/12 06:51:24;;;;;;;;;;;;;;;;;;5139219;27;19939;-76
2022/10/12 06:53:49;;;;;;;;;;;;;;;;;;5122835;27;20248;-75
2022/10/12 06:56:15;;;;;;;;;;;;;;;;;;5125556;27;19920;-76
2022/10/12 06:58:40;;;;;;;;;;;;;;;;;;5134716;27;19920;-75
2022/10/12 07:01:06;;;;;;;;;;;;;;;;;;5135191;27;19927;-74
2022/10/12 07:03:32;;;;;;;;;;;;;;;;;;5116314;27;19926;-74
2022/10/12 07:06:09;;;;;;;;;;;;;;;;;;5119155;27;19923;-74
2022/10/12 07:08:34;;;;;;;;;;;;;;;;;;5135172;27;19923;-74
2022/10/12 07:11:01;;;;;;;;;;;;;;;;;;5134057;27;19911;-73
2022/10/12 07:13:26;;;;;;;;;;;;;;;;;;5140122;27;19919;-74
2022/10/12 07:15:51;;;;;;;;;;;;;;;;;;5136938;27;19920;-77
2022/10/12 07:18:17;;;;;;;;;;;;;;;;;;5130806;27;19916;-75
2022/10/12 07:20:42;;;;;;;;;;;;;;;;;;5134299;27;19976;-75
2022/10/12 07:23:07;;;;;;;;;;;;;;;;;;5131249;27;19916;-75
2022/10/12 07:25:33;;;;;;;;;;;;;;;;;;5135867;27;19923;-75
2022/10/12 07:27:58;;;;;;;;;;;;;;;;;;5133047;27;19942;-75
2022/10/12 07:30:25;;;;;;;;;;;;;;;;;;5143425;27;19966;-77
2022/10/12 07:32:52;;;;;;;;;;;;;;;;;;5117197;27;20014;-75
2022/10/12 07:35:17;;;;;;;;;;;;;;;;;;5133297;27;19923;-75
2022/10/12 07:37:43;;;;;;;;;;;;;;;;;;5131066;27;20267;-76
2022/10/12 07:40:08;;;;;;;;;;;;;;;;;;5130553;27;19926;-74
2022/10/12 07:42:34;;;;;;;;;;;;;;;;;;5132892;27;20492;-75
2022/10/12 07:44:59;;;;;;;;;;;;;;;;;;5130239;27;19955;-75
2022/10/12 07:47:25;;;;;;;;;;;;;;;;;;5124012;27;19927;-77
2022/10/12 07:49:50;;;;;;;;;;;;;;;;;;5139364;27;20090;-78
2022/10/12 07:52:20;;;;;;;;;;;;;;;;;;5146796;27;19916;-77
2022/10/12 07:54:45;;;;;;;;;;;;;;;;;;5120553;27;19920;-77
2022/10/12 07:57:12;;;;;;;;;;;;;;;;;;5120365;27;20345;-76
2022/10/12 07:59:38;;;;;;;;;;;;;;;;;;5137454;27;20027;-77
2022/10/12 08:02:04;;;;;;;;;;;;;;;;;;5132884;27;20591;-75
2022/10/12 08:04:29;;;;;;;;;;;;;;;;;;5141321;27;19988;-76
2022/10/12 08:06:58;;;;;;;;;;;;;;;;;;5146752;27;20368;-77
2022/10/12 08:09:23;;;;;;;;;;;;;;;;;;5150700;27;19919;-78
2022/10/12 08:11:49;;;;;;;;;;;;;;;;;;5152564;27;19915;-78
2022/10/12 08:14:14;;;;;;;;;;;;;;;;;;5157775;27;20213;-77
2022/10/12 08:16:40;;;;;;;;;;;;;;;;;;5142374;27;19937;-76
2022/10/12 08:19:05;;;;;;;;;;;;;;;;;;5155035;27;19915;-77
2022/10/12 08:21:31;;;;;;;;;;;;;;;;;;5139172;27;19942;-77
2022/10/12 08:23:57;;;;;;;;;;;;;;;;;;5134613;27;19916;-77
2022/10/12 08:26:23;;;;;;;;;;;;;;;;;;5133613;27;19988;-76
2022/10/12 08:28:48;;;;;;;;;;;;;;;;;;5133036;27;20471;-75
2022/10/12 08:31:14;;;;;;;;;;;;;;;;;;5132010;27;19915;-78
2022/10/12 08:33:39;;;;;;;;;;;;;;;;;;5133468;27;20228;-78
2022/10/12 08:36:05;;;;;;;;;;;;;;;;;;5132198;27;19923;-77
2022/10/12 08:38:30;;;;;;;;;;;;;;;;;;5138750;27;19922;-77
2022/10/12 08:40:59;;;;;;;;;;;;;;;;;;5121825;27;19919;-78
2022/10/12 08:43:47;;;;;;;;;;;;;;;;;;5140392;27;19975;-78
2022/10/12 08:46:12;;;;;;;;;;;;;;;;;;5119286;27;19916;-79
2022/10/12 08:48:38;;;;;;;;;;;;;;;;;;5151172;27;20383;-77
2022/10/12 08:51:11;;;;;;;;;;;;;;;;;;5156435;27;19915;-76
2022/10/12 08:53:50;;;;;;;;;;;;;;;;;;5130348;27;20088;-76
2022/10/12 08:56:19;;;;;;;;;;;;;;;;;;5139404;27;19919;-78
2022/10/12 08:58:45;;;;;;;;;;;;;;;;;;5126780;27;19923;-77
2022/10/12 09:01:22;;;;;;;;;;;;;;;;;;5134487;27;19915;-76
2022/10/12 09:04:20;;;;;;;;;;;;;;;;;;5136057;27;20493;-75
2022/10/12 09:06:46;;;;;;;;;;;;;;;;;;5095023;27;19920;-76
2022/10/12 09:09:21;;;;;;;;;;;;;;;;;;5132129;27;19916;-76
2022/10/12 09:11:52;;;;;;;;;;;;;;;;;;5133494;27;19924;-76
2022/10/12 09:14:25;;;;;;;;;;;;;;;;;;5111807;28;19915;-77
2022/10/12 09:16:50;;;;;;;;;;;;;;;;;;5112321;28;19943;-77
2022/10/12 09:19:15;;;;;;;;;;;;;;;;;;5115065;28;19915;-77
2022/10/12 09:21:41;;;;;;;;;;;;;;;;;;5125123;27;19930;-76
2022/10/12 09:24:09;;;;;;;;;;;;;;;;;;5134230;27;19965;-77
2022/10/12 09:26:36;;;;;;;;;;;;;;;;;;5139445;27;19964;-76
2022/10/12 09:29:03;;;;;;;;;;;;;;;;;;5136260;27;19916;-75
2022/10/12 09:31:31;;;;;;;;;;;;;;;;;;5134292;27;19919;-77
2022/10/12 09:33:57;;;;;;;;;;;;;;;;;;5134402;27;19915;-77
2022/10/12 09:36:25;;;;;;;;;;;;;;;;;;5133282;27;19916;-76
2022/10/12 09:38:50;;;;;;;;;;;;;;;;;;5123227;27;19926;-76
2022/10/12 09:41:26;;;;;;;;;;;;;;;;;;5142008;27;19923;-77
2022/10/12 09:43:57;;;;;;;;;;;;;;;;;;5113193;27;19938;-76
2022/10/12 09:46:43;;;;;;;;;;;;;;;;;;5133221;27;19927;-77
2022/10/12 09:49:08;;;;;;;;;;;;;;;;;;5145639;27;19919;-78
2022/10/12 09:51:36;;;;;;;;;;;;;;;;;;5114139;27;20218;-76
2022/10/12 09:54:04;;;;;;;;;;;;;;;;;;5130870;27;19920;-78
2022/10/12 09:56:38;;;;;;;;;;;;;;;;;;5142008;27;19915;-78
2022/10/12 09:59:22;;;;;;;;;;;;;;;;;;5127573;27;19930;-78
2022/10/12 10:01:58;;;;;;;;;;;;;;;;;;5128812;27;19935;-79
2022/10/12 10:04:23;;;;;;;;;;;;;;;;;;5127200;27;19915;-79
2022/10/12 10:06:49;;;;;;;;;;;;;;;;;;5128053;27;19919;-79
2022/10/12 10:09:31;;;;;;;;;;;;;;;;;;5129828;27;19916;-80
2022/10/12 10:11:57;;;;;;;;;;;;;;;;;;5131499;27;19911;-77
2022/10/12 10:14:22;;;;;;;;;;;;;;;;;;5133893;27;19923;-77
2022/10/12 10:16:48;;;;;;;;;;;;;;;;;;5134709;27;19911;-77
2022/10/12 10:19:17;;;;;;;;;;;;;;;;;;5134968;27;19915;-78
2022/10/12 10:21:43;;;;;;;;;;;;;;;;;;5138258;27;19915;-78
2022/10/12 10:24:17;;;;;;;;;;;;;;;;;;5117878;27;19943;-78
2022/10/12 10:26:53;;;;;;;;;;;;;;;;;;5129873;27;19926;-77
2022/10/12 10:29:22;;;;;;;;;;;;;;;;;;5113352;28;20417;-78
2022/10/12 10:31:47;;;;;;;;;;;;;;;;;;5109961;28;19916;-79
2022/10/12 10:34:22;;;;;;;;;;;;;;;;;;5113085;27;19923;-78
2022/10/12 10:36:49;;;;;;;;;;;;;;;;;;5133085;27;19920;-76
2022/10/12 10:39:18;;;;;;;;;;;;;;;;;;5138290;27;19915;-76
2022/10/12 10:41:43;;;;;;;;;;;;;;;;;;5136245;27;19919;-74
2022/10/12 10:44:25;;;;;;;;;;;;;;;;;;5143035;27;19923;-77
2022/10/12 10:46:51;;;;;;;;;;;;;;;;;;5131522;27;19923;-76
2022/10/12 10:49:35;;;;;;;;;;;;;;;;;;5113220;28;19922;-76
2022/10/12 10:52:01;;;;;;;;;;;;;;;;;;5132838;28;19911;-76
2022/10/12 10:54:26;;;;;;;;;;;;;;;;;;5132586;27;19927;-76
2022/10/12 10:57:11;;;;;;;;;;;;;;;;;;5132075;27;19912;-76
2022/10/12 10:59:41;;;;;;;;;;;;;;;;;;5130445;28;19919;-77
2022/10/12 11:02:18;;;;;;;;;;;;;;;;;;5105426;28;19927;-77
2022/10/12 11:04:45;;;;;;;;;;;;;;;;;;5132793;27;19915;-78
2022/10/12 11:07:16;;;;;;;;;;;;;;;;;;5130731;28;19923;-78
2022/10/12 11:09:42;;;;;;;;;;;;;;;;;;5129790;27;19927;-78
2022/10/12 11:12:13;;;;;;;;;;;;;;;;;;5129875;28;20249;-78
2022/10/12 11:14:46;;;;;;;;;;;;;;;;;;5131234;28;19923;-77
2022/10/12 11:17:13;;;;;;;;;;;;;;;;;;5131081;28;19912;-78
2022/10/12 11:19:44;;;;;;;;;;;;;;;;;;5130752;28;20348;-78
2022/10/12 11:22:13;;;;;;;;;;;;;;;;;;5134233;27;20212;-78
2022/10/12 11:24:42;;;;;;;;;;;;;;;;;;5136997;27;20228;-78
2022/10/12 11:27:23;;;;;;;;;;;;;;;;;;5132459;27;19916;-77
2022/10/12 11:29:50;;;;;;;;;;;;;;;;;;5129510;28;20022;-78
2022/10/12 11:32:21;;;;;;;;;;;;;;;;;;5106484;28;19927;-77
2022/10/12 11:34:59;;;;;;;;;;;;;;;;;;5128940;27;19973;-78
2022/10/12 11:37:45;;;;;;;;;;;;;;;;;;5128201;28;20007;-77
2022/10/12 11:40:24;;;;;;;;;;;;;;;;;;5129150;27;19938;-77
2022/10/12 11:42:50;;;;;;;;;;;;;;;;;;5131264;27;19959;-78
2022/10/12 11:45:18;;;;;;;;;;;;;;;;;;5132622;27;19961;-77
2022/10/12 11:47:46;;;;;;;;;;;;;;;;;;5132722;27;19915;-78
2022/10/12 11:50:30;;;;;;;;;;;;;;;;;;5132580;27;19915;-78
2022/10/12 11:52:55;;;;;;;;;;;;;;;;;;5134505;27;19916;-78
2022/10/12 11:55:26;;;;;;;;;;;;;;;;;;5133159;27;19972;-76
2022/10/12 11:57:52;;;;;;;;;;;;;;;;;;5134063;27;19990;-75
2022/10/12 12:00:30;;;;;;;;;;;;;;;;;;5138275;27;19941;-77
2022/10/12 12:02:58;;;;;;;;;;;;;;;;;;5135172;27;19916;-77
2022/10/12 12:05:28;;;;;;;;;;;;;;;;;;5134492;27;19915;-77
2022/10/12 12:07:54;;;;;;;;;;;;;;;;;;5135407;27;19915;-77
2022/10/12 12:10:35;;;;;;;;;;;;;;;;;;5135717;27;19919;-77
2022/10/12 12:13:11;;;;;;;;;;;;;;;;;;5137404;27;19915;-78
2022/10/12 12:15:37;;;;;;;;;;;;;;;;;;5135238;27;19915;-79
2022/10/12 12:18:03;;;;;;;;;;;;;;;;;;5135471;27;20214;-78
2022/10/12 12:20:54;;;;;;;;;;;;;;;;;;5131733;27;19922;-78
2022/10/12 12:23:23;;;;;;;;;;;;;;;;;;5127781;27;19966;-77
2022/10/12 12:26:02;;;;;;;;;;;;;;;;;;5132487;27;19915;-77
2022/10/12 12:28:27;;;;;;;;;;;;;;;;;;5131820;27;19930;-78
2022/10/12 12:30:56;;;;;;;;;;;;;;;;;;5125616;27;19915;-77
2022/10/12 12:33:26;;;;;;;;;;;;;;;;;;5133162;27;19922;-77
2022/10/12 12:35:52;;;;;;;;;;;;;;;;;;5135305;27;19964;-78
2022/10/12 12:38:18;;;;;;;;;;;;;;;;;;5118554;27;20340;-78
2022/10/12 12:41:07;;;;;;;;;;;;;;;;;;5136252;27;19915;-78
2022/10/12 12:43:32;;;;;;;;;;;;;;;;;;5123296;27;19915;-77
2022/10/12 12:45:58;;;;;;;;;;;;;;;;;;5135748;27;19988;-77
2022/10/12 12:48:43;;;;;;;;;;;;;;;;;;5136052;27;20055;-78
2022/10/12 12:51:12;;;;;;;;;;;;;;;;;;5125908;27;20005;-78
2022/10/12 12:53:41;;;;;;;;;;;;;;;;;;5152683;27;19943;-78
2022/10/12 12:56:25;;;;;;;;;;;;;;;;;;5157825;27;19920;-79
2022/10/12 12:58:54;;;;;;;;;;;;;;;;;;5158027;27;19920;-78
2022/10/12 13:01:27;;;;;;;;;;;;;;;;;;5139886;27;19903;-77
2022/10/12 13:04:11;;;;;;;;;;;;;;;;;;5156618;27;20225;-77
2022/10/12 13:06:49;;;;;;;;;;;;;;;;;;5157232;27;19919;-79
2022/10/12 13:09:14;;;;;;;;;;;;;;;;;;5137360;27;19915;-78
2022/10/12 13:11:42;;;;;;;;;;;;;;;;;;5136428;27;20430;-77
2022/10/12 13:14:26;;;;;;;;;;;;;;;;;;5136696;27;19915;-78
2022/10/12 13:16:51;;;;;;;;;;;;;;;;;;5136445;27;19955;-77
2022/10/12 13:19:16;;;;;;;;;;;;;;;;;;5136687;27;20348;-79
2022/10/12 13:21:45;;;;;;;;;;;;;;;;;;5135447;27;20313;-78
2022/10/12 13:24:10;;;;;;;;;;;;;;;;;;5135659;27;19915;-78
2022/10/12 13:26:36;;;;;;;;;;;;;;;;;;5135241;27;19916;-78
2022/10/12 13:29:01;;;;;;;;;;;;;;;;;;5134930;27;19915;-78
2022/10/12 13:31:31;;;;;;;;;;;;;;;;;;5133779;27;20002;-79
2022/10/12 13:34:02;;;;;;;;;;;;;;;;;;5124309;27;20006;-79
2022/10/12 13:36:29;;;;;;;;;;;;;;;;;;5136035;27;20318;-78
2022/10/12 13:38:58;;;;;;;;;;;;;;;;;;5134808;27;20259;-78
2022/10/12 13:41:24;;;;;;;;;;;;;;;;;;5133808;27;19915;-78
2022/10/12 13:43:53;;;;;;;;;;;;;;;;;;5117585;27;19922;-78
2022/10/12 13:46:37;;;;;;;;;;;;;;;;;;5134852;27;19987;-77
2022/10/12 13:49:08;;;;;;;;;;;;;;;;;;5131734;27;20579;-77
2022/10/12 13:51:33;;;;;;;;;;;;;;;;;;5134110;27;20324;-77
2022/10/12 13:53:58;;;;;;;;;;;;;;;;;;5135033;27;19922;-78
2022/10/12 13:56:27;;;;;;;;;;;;;;;;;;5132478;27;20333;-78
2022/10/12 13:58:55;;;;;;;;;;;;;;;;;;5133025;27;19919;-78
2022/10/12 14:01:20;;;;;;;;;;;;;;;;;;5133926;27;20275;-79
2022/10/12 14:03:45;;;;;;;;;;;;;;;;;;5134987;27;19937;-78
2022/10/12 14:06:23;;;;;;;;;;;;;;;;;;5134921;27;19926;-77
2022/10/12 14:08:49;;;;;;;;;;;;;;;;;;5133753;27;20009;-77
2022/10/12 14:11:16;;;;;;;;;;;;;;;;;;5128599;27;20047;-78
2022/10/12 14:13:41;;;;;;;;;;;;;;;;;;5135017;27;19919;-79
2022/10/12 14:16:06;;;;;;;;;;;;;;;;;;5135074;27;20015;-79
2022/10/12 14:18:34;;;;;;;;;;;;;;;;;;5134049;27;19916;-78
2022/10/12 14:21:11;;;;;;;;;;;;;;;;;;5133590;27;19915;-78
2022/10/12 14:23:40;;;;;;;;;;;;;;;;;;5116824;27;19923;-79
2022/10/12 14:26:13;;;;;;;;;;;;;;;;;;5133392;27;19923;-78
2022/10/12 14:28:38;;;;;;;;;;;;;;;;;;5135017;27;19922;-77
2022/10/12 14:31:04;;;;;;;;;;;;;;;;;;5134762;27;19916;-77
2022/10/12 14:33:29;;;;;;;;;;;;;;;;;;5135151;27;19922;-78
2022/10/12 14:36:10;;;;;;;;;;;;;;;;;;5128094;27;20261;-78
2022/10/12 14:38:39;;;;;;;;;;;;;;;;;;5114267;28;19915;-78
2022/10/12 14:41:23;;;;;;;;;;;;;;;;;;5114083;28;19916;-78
2022/10/12 14:44:07;;;;;;;;;;;;;;;;;;5126652;28;19919;-77
2022/10/12 14:46:32;;;;;;;;;;;;;;;;;;5133158;28;19949;-78
2022/10/12 14:48:57;;;;;;;;;;;;;;;;;;5134042;27;19925;-78
2022/10/12 14:51:23;;;;;;;;;;;;;;;;;;5132072;28;19950;-78
2022/10/12 14:54:01;;;;;;;;;;;;;;;;;;5134021;27;20305;-78
2022/10/12 14:56:26;;;;;;;;;;;;;;;;;;5131641;28;19932;-78
2022/10/12 14:58:51;;;;;;;;;;;;;;;;;;5129112;27;19923;-78
2022/10/12 15:01:17;;;;;;;;;;;;;;;;;;5131182;27;19916;-78
2022/10/12 15:03:42;;;;;;;;;;;;;;;;;;5134040;27;19960;-78
2022/10/12 15:06:16;;;;;;;;;;;;;;;;;;5134570;27;19916;-78
2022/10/12 15:08:42;;;;;;;;;;;;;;;;;;5115882;28;19919;-79
2022/10/12 15:11:11;;;;;;;;;;;;;;;;;;5134311;27;19923;-79
2022/10/12 15:13:36;;;;;;;;;;;;;;;;;;5134462;27;20010;-78
2022/10/12 15:16:02;;;;;;;;;;;;;;;;;;5134795;27;20071;-77
2022/10/12 15:18:27;;;;;;;;;;;;;;;;;;5135190;27;19915;-79
2022/10/12 15:20:55;;;;;;;;;;;;;;;;;;5136694;27;20010;-78
2022/10/12 15:23:20;;;;;;;;;;;;;;;;;;5137518;27;20002;-78
2022/10/12 15:25:45;;;;;;;;;;;;;;;;;;5137336;27;19943;-78
2022/10/12 15:28:11;;;;;;;;;;;;;;;;;;5138860;27;20340;-78
2022/10/12 15:30:36;;;;;;;;;;;;;;;;;;5138645;27;19972;-78
2022/10/12 15:33:01;;;;;;;;;;;;;;;;;;5137818;27;19916;-77
2022/10/12 15:35:27;;;;;;;;;;;;;;;;;;5138859;27;19922;-77
2022/10/12 15:37:55;;;;;;;;;;;;;;;;;;5137680;27;20010;-76
2022/10/12 15:40:20;;;;;;;;;;;;;;;;;;5138585;27;19926;-76
2022/10/12 15:42:45;;;;;;;;;;;;;;;;;;5138397;27;19915;-77
2022/10/12 15:45:30;;;;;;;;;;;;;;;;;;5137158;27;19923;-77
2022/10/12 15:47:56;;;;;;;;;;;;;;;;;;5139171;27;19915;-77
2022/10/12 15:50:23;;;;;;;;;;;;;;;;;;5137597;27;19922;-77
2022/10/12 15:52:48;;;;;;;;;;;;;;;;;;5137007;27;19919;-76
2022/10/12 15:55:13;;;;;;;;;;;;;;;;;;5137018;27;19916;-78
2022/10/12 15:57:39;;;;;;;;;;;;;;;;;;5138107;27;20237;-79
2022/10/12 16:00:04;;;;;;;;;;;;;;;;;;5138085;27;19915;-78
2022/10/12 16:02:30;;;;;;;;;;;;;;;;;;5136075;27;19954;-78
2022/10/12 16:04:58;;;;;;;;;;;;;;;;;;5128312;27;19919;-78
2022/10/12 16:07:23;;;;;;;;;;;;;;;;;;5137114;27;19937;-78
2022/10/12 16:09:49;;;;;;;;;;;;;;;;;;5137206;27;20269;-77
2022/10/12 16:12:14;;;;;;;;;;;;;;;;;;5137504;27;20360;-79
2022/10/12 16:14:39;;;;;;;;;;;;;;;;;;5137673;27;19915;-79
2022/10/12 16:17:05;;;;;;;;;;;;;;;;;;5137621;27;19920;-79
2022/10/12 16:19:30;;;;;;;;;;;;;;;;;;5136008;27;19922;-79
2022/10/12 16:21:55;;;;;;;;;;;;;;;;;;5136694;27;19916;-79
2022/10/12 16:24:21;;;;;;;;;;;;;;;;;;5137498;27;19923;-78
2022/10/12 16:26:48;;;;;;;;;;;;;;;;;;5136268;27;19915;-79
2022/10/12 16:29:14;;;;;;;;;;;;;;;;;;5137266;27;19999;-78
2022/10/12 16:31:39;;;;;;;;;;;;;;;;;;5135930;27;20398;-78
2022/10/12 16:34:04;;;;;;;;;;;;;;;;;;5135591;27;20325;-78
2022/10/12 16:36:30;;;;;;;;;;;;;;;;;;5136284;27;19947;-78
2022/10/12 16:38:55;;;;;;;;;;;;;;;;;;5137425;27;19987;-78
2022/10/12 16:41:20;;;;;;;;;;;;;;;;;;5136093;27;19923;-77
2022/10/12 16:43:46;;;;;;;;;;;;;;;;;;5136323;27;19922;-78
2022/10/12 16:46:11;;;;;;;;;;;;;;;;;;5137225;27;19915;-78
2022/10/12 16:48:37;;;;;;;;;;;;;;;;;;5137220;27;19959;-78
2022/10/12 16:51:08;;;;;;;;;;;;;;;;;;5136885;27;19919;-77